Royal Palm Beach, FL

12:01 AM EST on January 25, 2015 (GMT -0500)
La Mancha | Change Station
CLOSE
Current Station
Personal Weather Station
Location: ROYAL PALM BEACH, FL
Elevation: 43 ft
Nearby Weather Stations

Elev 43 ft 26.71 °N, 80.22 °W | Updated 9 days ago

Clear
Clear
52 °F
Feels Like 52 °F
N
11
Wind Variable Wind from NNW
Gusts 14 mph

Today
High -- | Low -- °F
--% Chance of Precip.
Yesterday
High -- | Low -- °F
Precip. -- in
7:08 AM 5:57 PM
Waxing Crescent, 28% visible
Pressure 30.01 in
Visibility 10.0 miles
Clouds Clear
Dew Point 46 °F
Humidity 82%
Rainfall 0.00 in
Snow Depth Not available.
UV 0 out of 12
Pollen 7.60 out of 12
Air Quality Not available.
Flu Activity Not available.
METAR KPBI 250453Z 29006KT 10SM CLR 13/10 A3001 RMK AO2 SLP160 T01280100 402500128

More Conditions Fewer Conditions

Pressure 30.01 in
Visibility 10.0 miles
Clouds Clear
Dew Point 46 °F
Humidity 82%
Rainfall 0.00 in
Snow Depth Not available.
UV 0 out of 12
Pollen 7.60 out of 12
Air Quality Not available.
Flu Activity Not available.
METAR KPBI 250453Z 29006KT 10SM CLR 13/10 A3001 RMK AO2 SLP160 T01280100 402500128

More Conditions Fewer Conditions

10-Day Weather Forecast

Almanac

Astronomy

Jan. 25, 2015 Rise Set
Actual Time
Civil Twilight
Nautical Twilight
Astronomical Twilight
Moon
Length of Visible Light
Length of Day
Tomorrow will be .
, % of the Moon is Illuminated

Today's Extremes

State Highs State Lows

Community

WunderPhotos

Upload Photos

1,789,840 photos uploaded!

WunderBlogs® & News

Nearby

Air Quality

  Air Quality AQ Index Pollutant
Not available.

Snow Depth

Station Depth Elevation

Earthquake Activity

City Distance Mag. Time & Date
Minimum magnitude displayed is 2.5.

Coastal Water Temperatures

Place Temperature

Nearby Weather Stations